createdAt,value
2023-01-04T00:00:29.784Z,7.6
2023-01-04T00:02:29.711Z,7.6
2023-01-04T00:04:29.203Z,7.6
2023-01-04T00:06:28.490Z,7.6
2023-01-04T00:08:28.600Z,7.6
2023-01-04T00:10:27.619Z,7.6
2023-01-04T00:12:27.382Z,7.6
2023-01-04T00:14:27.338Z,7.6
2023-01-04T00:16:28.014Z,7.6
2023-01-04T00:18:26.284Z,7.6
2023-01-04T00:20:26.164Z,7.6
2023-01-04T00:22:25.602Z,7.6
2023-01-04T00:26:27.307Z,7.6
2023-01-04T00:28:25.372Z,7.7
2023-01-04T00:30:24.372Z,7.6
2023-01-04T00:34:23.572Z,7.7
2023-01-04T00:36:24.243Z,7.7
2023-01-04T00:38:22.812Z,7.7
2023-01-04T00:40:22.514Z,7.7
2023-01-04T00:42:22.207Z,7.7
2023-01-04T00:44:21.753Z,7.8
2023-01-04T00:46:21.567Z,7.8
2023-01-04T00:48:21.765Z,7.8
2023-01-04T00:50:20.779Z,7.8
2023-01-04T00:52:20.625Z,7.8
2023-01-04T00:54:21.046Z,7.9
2023-01-04T00:56:20.218Z,7.8
2023-01-04T00:58:19.616Z,7.9
2023-01-04T01:00:19.192Z,7.9
2023-01-04T01:02:18.898Z,7.9
2023-01-04T01:06:18.139Z,7.9
2023-01-04T01:08:25.388Z,7.9
2023-01-04T01:10:17.517Z,7.9
2023-01-04T01:18:16.590Z,7.9
2023-01-04T01:20:16.787Z,7.9
2023-01-04T01:22:15.484Z,7.9
2023-01-04T01:24:16.950Z,7.9
2023-01-04T01:26:17.502Z,7.9
2023-01-04T01:28:14.407Z,7.9
2023-01-04T01:30:14.058Z,7.9
2023-01-04T01:32:13.674Z,7.9
2023-01-04T01:34:13.797Z,7.9
2023-01-04T01:36:14.361Z,7.9
2023-01-04T01:38:12.626Z,7.9
2023-01-04T01:40:12.707Z,7.9
2023-01-04T01:42:18.832Z,8.0
2023-01-04T01:44:31.767Z,8.0
2023-01-04T01:46:14.019Z,7.9
2023-01-04T01:48:15.428Z,7.9
2023-01-04T01:50:21.171Z,7.9
2023-01-04T01:54:14.650Z,8.0
2023-01-04T01:56:10.045Z,8.0
2023-01-04T02:00:13.046Z,8.0
2023-01-04T02:06:11.184Z,8.0
2023-01-04T02:12:10.143Z,8.0
2023-01-04T02:14:17.975Z,8.0
2023-01-04T02:16:11.266Z,8.0
2023-01-04T02:24:25.075Z,8.1
2023-01-04T02:26:24.741Z,8.1
2023-01-04T02:28:15.064Z,8.1
2023-01-04T02:30:23.724Z,8.1
2023-01-04T02:32:10.174Z,8.1
2023-01-04T02:36:13.505Z,8.1
2023-01-04T02:44:20.115Z,8.2
2023-01-04T02:46:05.804Z,8.2
2023-01-04T02:48:13.169Z,8.2
2023-01-04T02:50:10.787Z,8.3
2023-01-04T02:52:00.998Z,8.3
2023-01-04T02:54:06.012Z,8.3
2023-01-04T02:56:12.581Z,8.3
2023-01-04T03:00:13.966Z,8.3
2023-01-04T03:02:16.362Z,8.4
2023-01-04T03:04:21.581Z,8.4
2023-01-04T03:06:15.914Z,8.4
2023-01-04T03:08:07.420Z,8.4
2023-01-04T03:10:04.992Z,8.4
2023-01-04T03:12:11.847Z,8.4
2023-01-04T03:14:01.965Z,8.4
2023-01-04T03:16:01.855Z,8.4
2023-01-04T03:18:02.169Z,8.4
2023-01-04T03:19:58.533Z,8.5
2023-01-04T03:21:55.902Z,8.5
2023-01-04T03:24:08.979Z,8.5
2023-01-04T03:26:10.543Z,8.5
2023-01-04T03:28:05.034Z,8.5
2023-01-04T03:30:11.202Z,8.6
2023-01-04T03:36:05.897Z,8.6
2023-01-04T03:40:15.075Z,8.7
2023-01-04T03:42:09.915Z,8.7
2023-01-04T03:44:11.128Z,8.7
2023-01-04T03:46:07.252Z,8.7
2023-01-04T03:48:09.546Z,8.7
2023-01-04T03:49:58.488Z,8.7
2023-01-04T03:51:55.059Z,8.8
2023-01-04T03:55:53.145Z,8.8
2023-01-04T03:59:56.154Z,8.8
2023-01-04T04:01:50.081Z,8.8
2023-01-04T04:05:58.768Z,8.8
2023-01-04T04:09:48.920Z,8.9
2023-01-04T04:11:48.526Z,8.9
2023-01-04T04:13:48.767Z,8.9
2023-01-04T04:15:47.575Z,8.9
2023-01-04T04:17:46.882Z,8.9
2023-01-04T04:19:46.483Z,8.9
2023-01-04T04:21:46.173Z,8.9
2023-01-04T04:23:46.120Z,8.9
2023-01-04T04:27:45.257Z,9.0
2023-01-04T04:31:44.769Z,9.0
2023-01-04T04:35:44.203Z,9.1
2023-01-04T04:37:44.108Z,9.1
2023-01-04T04:39:44.126Z,9.1
2023-01-04T04:41:43.300Z,9.1
2023-01-04T04:45:42.555Z,9.2
2023-01-04T04:47:42.227Z,9.2
2023-01-04T04:49:41.889Z,9.2
2023-01-04T04:51:42.573Z,9.2
2023-01-04T04:53:41.608Z,9.2
2023-01-04T04:55:40.889Z,9.3
2023-01-04T04:57:40.693Z,9.3
2023-01-04T04:59:40.407Z,9.3
2023-01-04T05:01:40.757Z,9.3
2023-01-04T05:03:40.265Z,9.3
2023-01-04T05:05:39.878Z,9.3
2023-01-04T05:09:38.802Z,9.3
2023-01-04T05:11:49.874Z,9.4
2023-01-04T05:13:38.576Z,9.4
2023-01-04T05:15:40.175Z,9.4
2023-01-04T05:17:37.535Z,9.4
2023-01-04T05:19:37.271Z,9.4
2023-01-04T05:21:37.371Z,9.4
2023-01-04T05:23:36.848Z,9.5
2023-01-04T05:27:36.221Z,9.5
2023-01-04T05:29:45.719Z,9.5
2023-01-04T05:31:37.066Z,9.5
2023-01-04T05:33:35.711Z,9.5
2023-01-04T05:37:34.979Z,9.5
2023-01-04T05:39:34.312Z,9.5
2023-01-04T05:41:43.769Z,9.5
2023-01-04T05:43:33.569Z,9.5
2023-01-04T05:45:34.015Z,9.5
2023-01-04T05:47:33.882Z,9.5
2023-01-04T05:49:32.714Z,9.5
2023-01-04T05:51:32.400Z,9.5
2023-01-04T05:53:32.145Z,9.5
2023-01-04T05:55:32.134Z,9.5
2023-01-04T05:57:31.664Z,9.6
2023-01-04T05:59:37.148Z,9.5
2023-01-04T06:01:31.372Z,9.5
2023-01-04T06:03:31.083Z,9.6
2023-01-04T06:05:30.406Z,9.6
2023-01-04T06:07:30.483Z,9.6
2023-01-04T06:09:29.632Z,9.6
2023-01-04T06:11:29.613Z,9.6
2023-01-04T06:15:28.804Z,9.6
2023-01-04T06:17:28.409Z,9.7
2023-01-04T06:21:27.856Z,9.7
2023-01-04T06:23:27.538Z,9.7
2023-01-04T06:25:27.174Z,9.7
2023-01-04T06:27:27.107Z,9.7
2023-01-04T06:29:26.883Z,9.7
2023-01-04T06:31:26.678Z,9.7
2023-01-04T06:33:26.506Z,9.7
2023-01-04T06:35:26.166Z,9.7
2023-01-04T06:39:25.266Z,9.7
2023-01-04T06:41:25.277Z,9.7
2023-01-04T06:45:24.251Z,9.7
2023-01-04T06:47:23.862Z,9.7
2023-01-04T06:49:23.660Z,9.7
2023-01-04T06:51:23.951Z,9.7
2023-01-04T06:53:22.877Z,9.7
2023-01-04T06:55:22.598Z,9.8
2023-01-04T06:57:23.106Z,9.8
2023-01-04T07:01:22.455Z,9.8
2023-01-04T07:03:22.452Z,9.8
2023-01-04T07:05:20.993Z,9.8
2023-01-04T07:07:20.767Z,9.8
2023-01-04T07:09:20.425Z,9.8
2023-01-04T07:11:20.153Z,9.8
2023-01-04T07:13:19.844Z,9.8
2023-01-04T07:15:38.980Z,9.8
2023-01-04T07:17:22.564Z,9.8
2023-01-04T07:21:18.732Z,9.8
2023-01-04T07:25:18.760Z,9.8
2023-01-04T07:27:18.358Z,9.9
2023-01-04T07:29:17.591Z,9.9
2023-01-04T07:31:17.220Z,9.9
2023-01-04T07:33:16.813Z,9.9
2023-01-04T07:37:16.204Z,9.9
2023-01-04T07:39:17.243Z,10.0
2023-01-04T07:41:15.884Z,10.0
2023-01-04T07:49:18.251Z,10.0
2023-01-04T07:51:14.054Z,10.0
2023-01-04T07:53:13.643Z,10.0
2023-01-04T07:57:13.452Z,10.0
2023-01-04T07:59:14.552Z,10.0
2023-01-04T08:01:16.242Z,10.1
2023-01-04T08:03:12.112Z,10.1
2023-01-04T08:09:12.253Z,10.1
2023-01-04T08:11:13.811Z,10.1
2023-01-04T08:13:11.012Z,10.1
2023-01-04T08:15:10.757Z,10.1
2023-01-04T08:17:09.968Z,10.1
2023-01-04T08:21:09.309Z,10.1
2023-01-04T08:25:09.103Z,10.1
2023-01-04T08:27:10.066Z,10.1
2023-01-04T08:29:08.682Z,10.1
2023-01-04T08:31:10.172Z,10.1
2023-01-04T08:33:13.382Z,10.1
2023-01-04T08:35:08.000Z,10.1
2023-01-04T08:37:07.190Z,10.1
2023-01-04T08:41:30.815Z,10.1
2023-01-04T08:43:05.925Z,10.1
2023-01-04T08:45:07.609Z,10.1
2023-01-04T08:49:05.103Z,10.1
2023-01-04T08:53:04.446Z,10.1
2023-01-04T08:55:11.912Z,10.1
2023-01-04T08:57:04.317Z,10.2
2023-01-04T08:59:04.078Z,10.2
2023-01-04T09:01:05.898Z,10.2
2023-01-04T09:03:04.744Z,10.2
2023-01-04T09:07:02.960Z,10.3
2023-01-04T09:09:03.038Z,10.3
2023-01-04T09:11:03.572Z,10.3
2023-01-04T09:13:01.417Z,10.3
2023-01-04T09:15:01.204Z,10.3
2023-01-04T09:17:00.806Z,10.3
2023-01-04T09:19:00.696Z,10.3
2023-01-04T09:21:05.158Z,10.3
2023-01-04T09:22:59.931Z,10.3
2023-01-04T09:24:59.713Z,10.3
2023-01-04T09:26:59.404Z,10.4
2023-01-04T09:28:59.258Z,10.4
2023-01-04T09:31:04.733Z,10.4
2023-01-04T09:32:58.990Z,10.5
2023-01-04T09:34:59.053Z,10.5
2023-01-04T09:36:58.590Z,10.5
2023-01-04T09:38:57.896Z,10.5
2023-01-04T09:41:03.853Z,10.6
2023-01-04T09:45:23.070Z,10.5
2023-01-04T09:47:03.423Z,10.5
2023-01-04T09:50:59.528Z,10.6
2023-01-04T09:53:04.040Z,10.7
2023-01-04T09:55:02.824Z,10.6
2023-01-04T09:56:58.218Z,10.7
2023-01-04T09:58:57.160Z,10.7
2023-01-04T10:00:59.843Z,10.7
2023-01-04T10:02:59.914Z,10.7
2023-01-04T10:04:57.065Z,10.7
2023-01-04T10:06:57.049Z,10.7
2023-01-04T10:09:03.736Z,10.7
2023-01-04T10:11:05.114Z,10.7
2023-01-04T10:13:08.429Z,10.7
2023-01-04T10:15:05.894Z,10.6
2023-01-04T10:17:17.858Z,10.6
2023-01-04T10:19:51.488Z,10.6
2023-01-04T10:21:28.220Z,10.7
2023-01-04T10:25:06.142Z,10.6
2023-01-04T10:29:06.873Z,10.6
2023-01-04T10:30:57.920Z,10.6
2023-01-04T10:32:57.893Z,10.6
2023-01-04T10:34:50.974Z,10.6
2023-01-04T10:36:56.357Z,10.6
2023-01-04T10:40:49.795Z,10.6
2023-01-04T10:42:58.828Z,10.6
2023-01-04T10:44:56.903Z,10.6
2023-01-04T10:47:02.280Z,10.5
2023-01-04T10:48:53.293Z,10.6
2023-01-04T10:50:54.444Z,10.6
2023-01-04T10:52:53.608Z,10.5
2023-01-04T11:00:53.394Z,10.5
2023-01-04T11:02:50.189Z,10.5
2023-01-04T11:04:55.330Z,10.5
2023-01-04T11:06:52.620Z,10.5
2023-01-04T11:10:52.501Z,10.6
2023-01-04T11:12:45.012Z,10.6
2023-01-04T11:14:44.534Z,10.6
2023-01-04T11:16:48.554Z,10.6
2023-01-04T11:20:43.587Z,10.6
2023-01-04T11:22:52.225Z,10.6
2023-01-04T11:26:46.179Z,10.6
2023-01-04T11:28:46.859Z,10.7
2023-01-04T11:30:50.606Z,10.6
2023-01-04T11:32:50.292Z,10.7
2023-01-04T11:36:42.911Z,10.7
2023-01-04T11:38:54.248Z,10.7
2023-01-04T11:40:41.064Z,10.7
2023-01-04T11:44:41.072Z,10.7
2023-01-04T11:46:39.736Z,10.7
2023-01-04T11:48:41.727Z,10.7
2023-01-04T11:50:41.263Z,10.7
2023-01-04T11:52:40.333Z,10.7
2023-01-04T11:54:38.718Z,10.7
2023-01-04T11:58:39.293Z,10.7
2023-01-04T12:00:48.375Z,10.7
2023-01-04T12:03:00.912Z,10.7
2023-01-04T12:04:37.487Z,10.7
2023-01-04T12:08:36.762Z,10.7
2023-01-04T12:12:36.300Z,10.7
2023-01-04T12:16:46.092Z,10.8
2023-01-04T12:18:38.745Z,10.8
2023-01-04T12:20:35.650Z,10.8
2023-01-04T12:22:37.441Z,10.8
2023-01-04T12:24:34.486Z,10.8
2023-01-04T12:26:40.325Z,10.9
2023-01-04T12:28:36.348Z,10.9
2023-01-04T12:30:38.788Z,10.9
2023-01-04T12:32:40.310Z,10.9
2023-01-04T12:34:42.452Z,11.0
2023-01-04T12:36:52.524Z,11.0
2023-01-04T12:38:52.308Z,11.0
2023-01-04T12:40:52.280Z,11.0
2023-01-04T12:42:32.121Z,11.0
2023-01-04T12:44:51.576Z,11.0
2023-01-04T12:50:31.287Z,11.1
2023-01-04T12:52:55.109Z,11.1
2023-01-04T12:54:44.404Z,11.1
2023-01-04T12:56:49.897Z,11.1
2023-01-04T12:59:15.257Z,11.1
2023-01-04T13:00:49.455Z,11.1
2023-01-04T13:02:31.204Z,11.1
2023-01-04T13:04:39.424Z,11.1
2023-01-04T13:06:33.077Z,11.1
2023-01-04T13:08:32.240Z,11.1
2023-01-04T13:12:45.551Z,11.1
2023-01-04T13:14:37.211Z,11.1
2023-01-04T13:16:38.794Z,11.2
2023-01-04T13:18:34.760Z,11.2
2023-01-04T13:20:29.782Z,11.1
2023-01-04T13:22:30.134Z,11.2
2023-01-04T13:26:27.655Z,11.2
2023-01-04T13:28:25.896Z,11.1
2023-01-04T13:30:28.049Z,11.2
2023-01-04T13:32:28.306Z,11.2
2023-01-04T13:40:26.469Z,11.3
2023-01-04T13:42:26.433Z,11.3
2023-01-04T13:48:25.681Z,11.4
2023-01-04T13:50:28.692Z,11.4
2023-01-04T13:52:46.281Z,11.4
2023-01-04T13:54:23.188Z,11.4
2023-01-04T13:56:24.581Z,11.4
2023-01-04T13:58:24.322Z,11.4
2023-01-04T14:00:22.891Z,11.4
2023-01-04T14:02:21.989Z,11.4
2023-01-04T14:06:25.498Z,11.4
2023-01-04T14:08:29.763Z,11.4
2023-01-04T14:10:21.198Z,11.4
2023-01-04T14:12:23.568Z,11.4
2023-01-04T14:14:27.771Z,11.4
2023-01-04T14:16:19.911Z,11.4
2023-01-04T14:18:26.344Z,11.4
2023-01-04T14:20:32.377Z,11.4
2023-01-04T14:25:07.813Z,11.4
2023-01-04T14:26:29.092Z,11.4
2023-01-04T14:28:27.668Z,11.4
2023-01-04T14:30:25.516Z,11.4
2023-01-04T14:32:17.806Z,11.4
2023-01-04T14:34:17.575Z,11.4
2023-01-04T14:36:20.588Z,11.3
2023-01-04T14:38:18.558Z,11.4
2023-01-04T14:40:24.101Z,11.3
2023-01-04T14:42:24.437Z,11.3
2023-01-04T14:44:19.640Z,11.3
2023-01-04T14:46:16.173Z,11.3
2023-01-04T14:48:21.824Z,11.3
2023-01-04T14:50:16.928Z,11.3
2023-01-04T14:52:22.321Z,11.3
2023-01-04T15:02:13.841Z,11.3
2023-01-04T15:04:13.748Z,11.3
2023-01-04T15:06:13.439Z,11.3
2023-01-04T15:12:12.742Z,11.3
2023-01-04T15:14:12.659Z,11.3
2023-01-04T15:16:15.343Z,11.3
2023-01-04T15:20:12.193Z,11.3
2023-01-04T15:22:11.093Z,11.3
2023-01-04T15:24:10.855Z,11.3
2023-01-04T15:26:11.322Z,11.3
2023-01-04T15:28:10.284Z,11.3
2023-01-04T15:30:11.348Z,11.3
2023-01-04T15:32:10.039Z,11.3
2023-01-04T15:38:18.205Z,11.2
2023-01-04T15:42:19.889Z,11.2
2023-01-04T15:44:09.082Z,11.2
2023-01-04T15:46:08.296Z,11.2
2023-01-04T15:48:11.677Z,11.2
2023-01-04T15:50:07.962Z,11.2
2023-01-04T15:52:06.930Z,11.1
2023-01-04T15:54:06.986Z,11.1
2023-01-04T15:56:08.209Z,11.1
2023-01-04T15:58:06.660Z,11.1
2023-01-04T16:00:06.910Z,11.1
2023-01-04T16:02:06.196Z,11.1
2023-01-04T16:04:06.085Z,11.1
2023-01-04T16:06:06.375Z,11.0
2023-01-04T16:08:04.937Z,11.0
2023-01-04T16:10:05.473Z,11.0
2023-01-04T16:12:14.892Z,11.0
2023-01-04T16:14:04.321Z,11.0
2023-01-04T16:16:04.735Z,11.0
2023-01-04T16:18:03.543Z,10.9
2023-01-04T16:20:04.076Z,10.9
2023-01-04T16:22:02.817Z,10.9
2023-01-04T16:24:09.492Z,10.9
2023-01-04T16:26:05.191Z,10.9
2023-01-04T16:28:02.046Z,10.8
2023-01-04T16:30:02.617Z,10.8
2023-01-04T16:32:02.981Z,10.8
2023-01-04T16:38:01.228Z,10.8
2023-01-04T16:40:08.922Z,10.8
2023-01-04T16:42:05.568Z,10.7
2023-01-04T16:44:03.352Z,10.8
2023-01-04T16:48:00.241Z,10.7
2023-01-04T16:51:58.894Z,10.7
2023-01-04T16:54:01.375Z,10.7
2023-01-04T16:56:02.293Z,10.7
2023-01-04T16:57:57.762Z,10.7
2023-01-04T16:59:57.513Z,10.7
2023-01-04T17:01:58.250Z,10.7
2023-01-04T17:03:59.188Z,10.7
2023-01-04T17:05:56.824Z,10.7
2023-01-04T17:07:56.335Z,10.7
2023-01-04T17:09:56.731Z,10.7
2023-01-04T17:12:45.473Z,10.7
2023-01-04T17:13:56.449Z,10.7
2023-01-04T17:15:57.670Z,10.7
2023-01-04T17:17:54.995Z,10.7
2023-01-04T17:19:54.714Z,10.7
2023-01-04T17:21:54.443Z,10.7
2023-01-04T17:23:56.217Z,10.7
2023-01-04T17:25:58.270Z,10.7
2023-01-04T17:27:53.752Z,10.7
2023-01-04T17:29:53.572Z,10.7
2023-01-04T17:31:53.250Z,10.6
2023-01-04T17:33:52.836Z,10.6
2023-01-04T17:35:52.543Z,10.6
2023-01-04T17:37:52.418Z,10.6
2023-01-04T17:39:52.494Z,10.6
2023-01-04T17:41:51.963Z,10.6
2023-01-04T17:43:53.404Z,10.6
2023-01-04T17:45:51.703Z,10.6
2023-01-04T17:49:50.640Z,10.6
2023-01-04T17:51:51.785Z,10.6
2023-01-04T17:53:55.090Z,10.6
2023-01-04T17:55:49.775Z,10.6
2023-01-04T17:57:49.380Z,10.7
2023-01-04T17:59:49.059Z,10.6
2023-01-04T18:01:49.108Z,10.6
2023-01-04T18:03:51.363Z,10.6
2023-01-04T18:05:59.038Z,10.6
2023-01-04T18:07:47.910Z,10.6
2023-01-04T18:09:47.628Z,10.6
2023-01-04T18:11:48.056Z,10.6
2023-01-04T18:13:47.536Z,10.6
2023-01-04T18:16:10.216Z,10.6
2023-01-04T18:17:46.804Z,10.6
2023-01-04T18:19:46.602Z,10.6
2023-01-04T18:21:45.853Z,10.6
2023-01-04T18:24:16.488Z,10.6
2023-01-04T18:25:45.611Z,10.6
2023-01-04T18:27:45.066Z,10.6
2023-01-04T18:31:44.918Z,10.5
2023-01-04T18:33:50.705Z,10.5
2023-01-04T18:35:43.853Z,10.5
2023-01-04T18:37:44.554Z,10.5
2023-01-04T18:39:43.953Z,10.5
2023-01-04T18:41:44.820Z,10.5
2023-01-04T18:44:05.340Z,10.5
2023-01-04T18:49:42.139Z,10.4
2023-01-04T18:51:41.614Z,10.4
2023-01-04T18:53:41.263Z,10.4
2023-01-04T18:55:40.971Z,10.4
2023-01-04T18:57:40.955Z,10.4
2023-01-04T18:59:40.619Z,10.3
2023-01-04T19:01:40.283Z,10.3
2023-01-04T19:03:42.054Z,10.2
2023-01-04T19:05:40.117Z,10.2
2023-01-04T19:07:39.549Z,10.2
2023-01-04T19:09:41.475Z,10.2
2023-01-04T19:11:39.255Z,10.2
2023-01-04T19:13:38.438Z,10.3
2023-01-04T19:15:47.150Z,10.2
2023-01-04T19:17:37.986Z,10.3
2023-01-04T19:21:37.378Z,10.3
2023-01-04T19:23:37.763Z,10.3
2023-01-04T19:27:36.427Z,10.4
2023-01-04T19:29:37.552Z,10.4
2023-01-04T19:31:36.324Z,10.4
2023-01-04T19:33:36.602Z,10.4
2023-01-04T19:35:39.292Z,10.4
2023-01-04T19:37:35.023Z,10.4
2023-01-04T19:39:35.248Z,10.4
2023-01-04T19:41:36.895Z,10.4
2023-01-04T19:43:34.622Z,10.4
2023-01-04T19:45:36.641Z,10.4
2023-01-04T19:47:33.424Z,10.4
2023-01-04T19:49:33.095Z,10.4
2023-01-04T19:51:33.365Z,10.4
2023-01-04T19:53:32.602Z,10.5
2023-01-04T19:57:32.297Z,10.4
2023-01-04T19:59:31.921Z,10.4
2023-01-04T20:01:31.804Z,10.5
2023-01-04T20:03:32.359Z,10.4
2023-01-04T20:05:33.170Z,10.5
2023-01-04T20:07:30.756Z,10.5
2023-01-04T20:09:32.142Z,10.5
2023-01-04T20:11:30.346Z,10.5
2023-01-04T20:13:32.196Z,10.5
2023-01-04T20:15:29.443Z,10.5
2023-01-04T20:17:29.017Z,10.5
2023-01-04T20:19:28.876Z,10.5
2023-01-04T20:21:28.487Z,10.5
2023-01-04T20:23:28.362Z,10.5
2023-01-04T20:25:27.817Z,10.4
2023-01-04T20:27:27.893Z,10.4
2023-01-04T20:29:27.811Z,10.4
2023-01-04T20:31:27.469Z,10.5
2023-01-04T20:33:26.960Z,10.5
2023-01-04T20:35:26.446Z,10.5
2023-01-04T20:37:26.169Z,10.5
2023-01-04T20:39:25.895Z,10.4
2023-01-04T20:41:28.112Z,10.4
2023-01-04T20:43:33.004Z,10.4
2023-01-04T20:47:24.735Z,10.4
2023-01-04T20:49:24.431Z,10.4
2023-01-04T20:51:27.077Z,10.4
2023-01-04T20:53:24.076Z,10.4
2023-01-04T20:55:23.826Z,10.5
2023-01-04T20:57:23.803Z,10.5
2023-01-04T20:59:23.573Z,10.4
2023-01-04T21:01:24.396Z,10.4
2023-01-04T21:03:22.544Z,10.4
2023-01-04T21:05:22.128Z,10.4
2023-01-04T21:07:22.296Z,10.4
2023-01-04T21:09:21.697Z,10.4
2023-01-04T21:11:21.887Z,10.4
2023-01-04T21:13:21.246Z,10.4
2023-01-04T21:15:20.841Z,10.4
2023-01-04T21:17:20.561Z,10.4
2023-01-04T21:19:20.449Z,10.4
2023-01-04T21:21:19.958Z,10.3
2023-01-04T21:23:21.773Z,10.2
2023-01-04T21:25:19.626Z,10.2
2023-01-04T21:27:19.503Z,10.2
2023-01-04T21:29:19.948Z,10.1
2023-01-04T21:31:22.764Z,10.1
2023-01-04T21:33:18.749Z,10.1
2023-01-04T21:35:17.727Z,10.1
2023-01-04T21:37:17.507Z,10.1
2023-01-04T21:39:17.192Z,10.1
2023-01-04T21:41:17.389Z,10.0
2023-01-04T21:43:17.235Z,10.1
2023-01-04T21:45:16.627Z,10.0
2023-01-04T21:51:15.490Z,9.9
2023-01-04T21:53:15.259Z,9.9
2023-01-04T21:57:15.221Z,9.9
2023-01-04T21:59:14.752Z,9.9
2023-01-04T22:01:16.162Z,9.9
2023-01-04T22:03:13.536Z,9.8
2023-01-04T22:05:13.259Z,9.8
2023-01-04T22:07:13.216Z,9.8
2023-01-04T22:09:12.772Z,9.8
2023-01-04T22:11:14.287Z,9.7
2023-01-04T22:13:12.224Z,9.7
2023-01-04T22:15:11.788Z,9.7
2023-01-04T22:17:11.661Z,9.6
2023-01-04T22:19:12.143Z,9.6
2023-01-04T22:21:12.942Z,9.6
2023-01-04T22:23:11.525Z,9.6
2023-01-04T22:25:10.736Z,9.6
2023-01-04T22:27:10.276Z,9.5
2023-01-04T22:29:10.826Z,9.5
2023-01-04T22:31:11.894Z,9.5
2023-01-04T22:33:09.258Z,9.5
2023-01-04T22:35:09.372Z,9.5
2023-01-04T22:37:08.520Z,9.4
2023-01-04T22:43:08.136Z,9.4
2023-01-04T22:45:13.317Z,9.4
2023-01-04T22:47:07.291Z,9.4
2023-01-04T22:49:06.911Z,9.4
2023-01-04T22:51:07.949Z,9.3
2023-01-04T22:53:06.322Z,9.3
2023-01-04T22:55:06.985Z,9.3
2023-01-04T22:57:05.472Z,9.3
2023-01-04T22:59:05.078Z,9.3
2023-01-04T23:01:06.580Z,9.3
2023-01-04T23:03:04.832Z,9.3
2023-01-04T23:05:05.184Z,9.3
2023-01-04T23:07:03.869Z,9.3
2023-01-04T23:09:06.899Z,9.3
2023-01-04T23:11:04.987Z,9.3
2023-01-04T23:13:03.406Z,9.3
2023-01-04T23:17:02.371Z,9.3
2023-01-04T23:19:03.330Z,9.2
2023-01-04T23:21:03.372Z,9.3
2023-01-04T23:23:01.787Z,9.2
2023-01-04T23:25:01.576Z,9.3
2023-01-04T23:27:00.770Z,9.4
2023-01-04T23:29:00.407Z,9.4
2023-01-04T23:32:59.872Z,9.4
2023-01-04T23:36:59.478Z,9.4
2023-01-04T23:39:02.478Z,9.4
2023-01-04T23:40:58.520Z,9.5
2023-01-04T23:42:58.620Z,9.4
2023-01-04T23:44:57.958Z,9.4
2023-01-04T23:46:59.581Z,9.4
2023-01-04T23:48:57.676Z,9.4
2023-01-04T23:50:57.710Z,9.5
2023-01-04T23:52:56.662Z,9.5
2023-01-04T23:54:56.328Z,9.5
2023-01-04T23:56:56.439Z,9.4
2023-01-04T23:58:55.727Z,9.5
